createdAt,value
2017-12-02T00:00:55.876Z,33.00
2017-12-02T00:05:58.449Z,29.03
2017-12-02T00:11:01.068Z,27.40
2017-12-02T00:16:03.663Z,34.47
2017-12-02T00:21:06.261Z,34.73
2017-12-02T00:26:08.839Z,39.20
2017-12-02T00:31:11.437Z,41.47
2017-12-02T00:36:14.076Z,31.87
2017-12-02T00:41:16.653Z,27.97
2017-12-02T00:46:19.267Z,35.40
2017-12-02T00:56:23.226Z,31.57
2017-12-02T01:01:25.803Z,37.40
2017-12-02T01:06:28.346Z,29.17
2017-12-02T01:11:31.662Z,30.70
2017-12-02T01:16:34.235Z,26.27
2017-12-02T01:21:36.784Z,29.20
2017-12-02T01:26:39.360Z,29.90
2017-12-02T01:31:41.911Z,30.50
2017-12-02T01:36:44.474Z,33.90
2017-12-02T01:41:47.774Z,33.73
2017-12-02T01:46:51.085Z,31.53
2017-12-02T01:51:53.620Z,26.63
2017-12-02T01:56:56.175Z,40.00
2017-12-02T02:01:58.828Z,26.03
2017-12-02T02:07:01.383Z,29.63
2017-12-02T02:12:04.687Z,25.97
2017-12-02T02:17:07.245Z,26.87
2017-12-02T02:22:09.788Z,27.13
2017-12-02T02:27:12.331Z,35.83
2017-12-02T02:32:14.919Z,31.43
2017-12-02T02:37:17.458Z,29.90
2017-12-02T02:42:19.987Z,31.90
2017-12-02T02:47:22.535Z,28.97
2017-12-02T02:52:25.094Z,34.00
2017-12-02T02:57:28.383Z,31.63
2017-12-02T03:02:30.934Z,31.60
2017-12-02T03:07:33.486Z,33.73
2017-12-02T03:12:36.034Z,37.03
2017-12-02T03:17:38.582Z,25.77
2017-12-02T03:22:41.138Z,31.20
2017-12-02T03:27:44.458Z,29.27
2017-12-02T03:32:47.011Z,40.97
2017-12-02T03:37:49.570Z,31.40
2017-12-02T03:42:52.126Z,39.23
2017-12-02T03:47:54.678Z,33.37
2017-12-02T03:52:57.246Z,29.30
2017-12-02T03:57:59.813Z,24.97
2017-12-02T04:03:02.374Z,31.73
2017-12-02T04:08:04.930Z,32.27
2017-12-02T04:13:07.479Z,22.57
2017-12-02T04:18:10.051Z,31.90
2017-12-02T04:23:12.607Z,23.33
2017-12-02T04:28:15.175Z,37.97
2017-12-02T04:33:17.746Z,31.77
2017-12-02T04:38:20.296Z,25.83
2017-12-02T04:43:22.838Z,27.10
2017-12-02T04:48:25.389Z,35.00
2017-12-02T04:53:27.932Z,27.13
2017-12-02T04:58:30.499Z,38.10
2017-12-02T05:03:33.038Z,24.40
2017-12-02T05:08:35.597Z,32.50
2017-12-02T05:13:38.150Z,27.83
2017-12-02T05:18:40.677Z,26.73
2017-12-02T05:23:43.230Z,28.90
2017-12-02T05:28:45.782Z,24.93
2017-12-02T05:33:49.098Z,37.97
2017-12-02T05:38:51.674Z,27.13
2017-12-02T05:43:54.198Z,38.43
2017-12-02T05:48:57.548Z,32.10
2017-12-02T05:54:00.110Z,27.63
2017-12-02T05:59:02.642Z,32.47
2017-12-02T06:04:05.203Z,30.13
2017-12-02T06:09:07.751Z,32.70
2017-12-02T06:14:10.301Z,41.77
2017-12-02T06:19:12.852Z,39.07
2017-12-02T06:24:15.398Z,31.50
2017-12-02T06:29:17.950Z,35.30
2017-12-02T06:34:20.495Z,34.47
2017-12-02T06:39:23.038Z,34.63
2017-12-02T06:44:25.604Z,43.90
2017-12-02T06:49:28.922Z,32.50
2017-12-02T06:54:32.234Z,47.70
2017-12-02T06:59:34.878Z,42.87
2017-12-02T07:04:37.439Z,40.37
2017-12-02T07:09:39.987Z,33.17
2017-12-02T07:14:42.553Z,43.43
2017-12-02T07:19:45.095Z,46.67
2017-12-02T07:24:47.654Z,50.27
2017-12-02T07:29:50.194Z,38.07
2017-12-02T07:34:53.511Z,38.60
2017-12-02T07:39:56.063Z,31.70
2017-12-02T07:44:58.611Z,31.80
2017-12-02T07:50:01.163Z,38.60
2017-12-02T07:55:03.714Z,34.20
2017-12-02T08:00:06.275Z,32.43
2017-12-02T08:05:08.830Z,40.47
2017-12-02T08:10:11.390Z,36.77
2017-12-02T08:15:13.959Z,42.37
2017-12-02T08:20:16.515Z,35.43
2017-12-02T08:25:19.068Z,33.73
2017-12-02T08:30:21.640Z,41.07
2017-12-02T08:35:24.958Z,43.73
2017-12-02T08:40:28.549Z,54.50
2017-12-02T08:45:31.126Z,39.67
2017-12-02T08:50:33.669Z,39.50
2017-12-02T08:55:36.987Z,43.17
2017-12-02T09:00:39.532Z,45.20
2017-12-02T09:05:42.078Z,59.23
2017-12-02T09:10:44.646Z,54.13
2017-12-02T09:15:47.202Z,50.00
2017-12-02T09:20:49.748Z,41.60
2017-12-02T09:25:52.299Z,48.70
2017-12-02T09:30:54.851Z,45.33
2017-12-02T09:35:57.398Z,53.40
2017-12-02T09:40:59.956Z,49.67
2017-12-02T09:46:02.515Z,46.97
2017-12-02T09:51:05.071Z,48.67
2017-12-02T09:56:07.623Z,50.93
2017-12-02T10:01:10.170Z,45.13
2017-12-02T10:06:12.727Z,49.23
2017-12-02T10:11:15.285Z,48.07
2017-12-02T10:16:17.830Z,52.70
2017-12-02T10:21:20.387Z,54.33
2017-12-02T10:26:22.930Z,55.13
2017-12-02T10:31:25.528Z,55.30
2017-12-02T10:36:28.032Z,58.20
2017-12-02T10:41:30.570Z,53.90
2017-12-02T10:46:33.905Z,55.03
2017-12-02T10:51:36.454Z,59.73
2017-12-02T10:56:38.999Z,46.90
2017-12-02T11:01:41.563Z,47.77
2017-12-02T11:06:44.874Z,51.57
2017-12-02T11:11:48.190Z,57.83
2017-12-02T11:16:50.738Z,46.37
2017-12-02T11:21:53.286Z,55.33
2017-12-02T11:26:55.839Z,56.07
2017-12-02T11:31:58.387Z,64.17
2017-12-02T11:37:00.997Z,52.17
2017-12-02T11:42:04.302Z,54.10
2017-12-02T11:47:07.614Z,47.33
2017-12-02T11:52:10.143Z,51.77
2017-12-02T11:57:12.679Z,53.93
2017-12-02T12:02:15.219Z,55.77
2017-12-02T12:07:18.539Z,53.23
2017-12-02T12:12:21.078Z,50.47
2017-12-02T12:17:23.631Z,43.90
2017-12-02T12:22:26.396Z,48.10
2017-12-02T12:27:28.934Z,54.47
2017-12-02T12:32:32.243Z,42.27
2017-12-02T12:37:35.563Z,45.07
2017-12-02T12:42:38.886Z,41.60
2017-12-02T12:47:42.190Z,44.83
2017-12-02T12:52:45.539Z,40.93
2017-12-02T12:57:48.094Z,46.70
2017-12-02T13:02:50.642Z,43.90
2017-12-02T13:07:53.187Z,50.10
2017-12-02T13:12:55.733Z,43.27
2017-12-02T13:17:58.270Z,38.60
2017-12-02T13:23:00.822Z,39.63
2017-12-02T13:28:03.358Z,38.67
2017-12-02T13:33:05.908Z,37.27
2017-12-02T13:38:09.221Z,41.97
2017-12-02T13:43:12.534Z,39.67
2017-12-02T13:48:15.082Z,36.50
2017-12-02T13:53:17.631Z,34.90
2017-12-02T13:58:20.175Z,45.47
2017-12-02T14:03:22.734Z,52.97
2017-12-02T14:08:26.068Z,46.60
2017-12-02T14:13:28.621Z,46.17
2017-12-02T14:18:31.176Z,39.67
2017-12-02T14:23:33.727Z,39.27
2017-12-02T14:28:36.270Z,42.40
2017-12-02T14:33:38.818Z,48.37
2017-12-02T14:38:41.359Z,43.10
2017-12-02T14:43:43.919Z,45.40
2017-12-02T14:48:46.435Z,38.43
2017-12-02T14:53:49.793Z,45.23
2017-12-02T14:58:52.342Z,43.50
2017-12-02T15:03:55.707Z,40.40
2017-12-02T15:13:56.826Z,43.93
2017-12-02T15:18:59.387Z,41.23
2017-12-02T15:24:01.961Z,50.70
2017-12-02T15:29:04.510Z,38.20
2017-12-02T15:34:07.034Z,46.07
2017-12-02T15:39:09.659Z,52.17
2017-12-02T15:44:12.234Z,50.17
2017-12-02T15:49:14.778Z,37.67
2017-12-02T15:54:17.356Z,57.40
2017-12-02T15:59:19.912Z,43.67
2017-12-02T16:04:22.497Z,39.00
2017-12-02T16:09:25.058Z,43.93
2017-12-02T16:14:28.375Z,41.63
2017-12-02T16:19:31.703Z,39.77
2017-12-02T16:24:34.243Z,39.27
2017-12-02T16:29:37.050Z,39.80
2017-12-02T16:34:39.595Z,42.20
2017-12-02T16:39:42.162Z,43.33
2017-12-02T16:44:44.708Z,55.97
2017-12-02T16:49:47.393Z,35.50
2017-12-02T16:54:50.706Z,39.77
2017-12-02T16:59:53.271Z,53.17
2017-12-02T17:04:55.824Z,71.53
2017-12-02T17:09:58.362Z,60.30
2017-12-02T17:15:00.974Z,51.30
2017-12-02T17:20:03.561Z,52.70
2017-12-02T17:25:06.095Z,41.30
2017-12-02T17:30:08.647Z,49.57
2017-12-02T17:35:11.198Z,45.67
2017-12-02T17:40:14.545Z,47.53
2017-12-02T17:45:17.082Z,45.83
2017-12-02T17:50:19.622Z,46.57
2017-12-02T17:55:22.211Z,52.07
2017-12-02T18:00:25.580Z,43.07
2017-12-02T18:05:28.206Z,37.77
2017-12-02T18:10:30.864Z,43.33
2017-12-02T18:15:33.427Z,41.23
2017-12-02T18:20:35.975Z,41.80
2017-12-02T18:25:38.590Z,45.83
2017-12-02T18:30:41.136Z,41.50
2017-12-02T18:35:44.494Z,40.50
2017-12-02T18:40:47.064Z,37.70
2017-12-02T18:45:49.627Z,37.27
2017-12-02T18:50:52.174Z,43.37
2017-12-02T18:55:54.746Z,38.27
2017-12-02T19:00:57.413Z,41.47
2017-12-02T19:05:59.984Z,44.30
2017-12-02T19:11:02.539Z,41.23
2017-12-02T19:16:05.873Z,43.57
2017-12-02T19:21:08.434Z,41.33
2017-12-02T19:26:11.082Z,41.60
2017-12-02T19:31:13.635Z,38.37
2017-12-02T19:36:16.252Z,45.17
2017-12-02T19:41:19.352Z,44.70
2017-12-02T19:46:22.849Z,43.83
2017-12-02T19:51:26.679Z,37.37
2017-12-02T19:56:29.252Z,38.87
2017-12-02T20:01:31.886Z,42.33
2017-12-02T20:06:34.521Z,43.73
2017-12-02T20:11:37.072Z,46.60
2017-12-02T20:16:39.614Z,36.90
2017-12-02T20:21:42.955Z,40.23
2017-12-02T20:26:45.494Z,45.43
2017-12-02T20:31:48.067Z,41.60
2017-12-02T20:36:50.616Z,37.00
2017-12-02T20:41:53.945Z,34.07
2017-12-02T20:46:57.264Z,43.70
2017-12-02T20:51:59.798Z,44.63
2017-12-02T20:57:03.138Z,37.50
2017-12-02T21:02:05.724Z,39.10
2017-12-02T21:07:08.272Z,49.10
2017-12-02T21:12:11.608Z,42.10
2017-12-02T21:17:14.165Z,44.40
2017-12-02T21:22:16.732Z,38.60
2017-12-02T21:27:19.299Z,42.13
2017-12-02T21:32:21.870Z,39.60
2017-12-02T21:37:24.386Z,38.73
2017-12-02T21:42:26.943Z,55.87
2017-12-02T21:47:29.472Z,36.10
2017-12-02T21:52:32.815Z,42.00
2017-12-02T21:57:36.136Z,28.27
2017-12-02T22:02:38.932Z,32.60
2017-12-02T22:07:41.464Z,28.97
2017-12-02T22:12:44.035Z,35.50
2017-12-02T22:17:46.590Z,33.57
2017-12-02T22:22:49.131Z,38.63
2017-12-02T22:27:51.674Z,39.20
2017-12-02T22:32:54.222Z,35.90
2017-12-02T22:37:56.759Z,41.80
2017-12-02T22:42:59.313Z,45.40
2017-12-02T22:48:01.850Z,37.67
2017-12-02T22:53:04.386Z,45.67
2017-12-02T22:58:06.955Z,38.70
2017-12-02T23:03:09.498Z,35.50
2017-12-02T23:08:12.034Z,39.33
2017-12-02T23:13:14.574Z,32.87
2017-12-02T23:18:17.126Z,42.00
2017-12-02T23:23:19.675Z,38.33
2017-12-02T23:28:22.994Z,32.33
2017-12-02T23:33:25.554Z,44.53
2017-12-02T23:38:28.108Z,42.10
2017-12-02T23:43:30.650Z,38.23
2017-12-02T23:48:33.194Z,41.73
2017-12-02T23:53:36.501Z,40.30
2017-12-02T23:58:39.811Z,53.83
